Time;durP1;ratioP1;P1;durP2;ratioP2;P2;SDS_P1;SDS_P2;PMS_P1;PMS_P2;Temp;Humidity;BMP_temperature;BMP_pressure;BME280_temperature;BME280_humidity;BME280_pressure;Samples;Min_cycle;Max_cycle;Signal;HPM_P1;HPM_P2
2024/01/10 00:01:55;;;;;;;5.30;3.00;;;;;;;-4.00;100.00;101297.25;87281;267;137609;-80
2024/01/10 00:03:57;;;;;;;3.70;3.20;;;;;;;-4.02;100.00;101299.39;87272;271;23110;-82
2024/01/10 00:06:00;;;;;;;5.10;3.00;;;;;;;-4.04;100.00;101295.49;87102;271;136622;-72
2024/01/10 00:08:06;;;;;;;5.00;2.90;;;;;;;-3.99;100.00;101294.59;87264;279;137304;-79
2024/01/10 00:10:08;;;;;;;4.20;3.40;;;;;;;-3.91;100.00;101283.61;87411;267;23633;-80
2024/01/10 00:12:10;;;;;;;3.50;2.70;;;;;;;-3.85;100.00;101274.15;87296;274;137109;-80
2024/01/10 00:14:12;;;;;;;3.00;2.20;;;;;;;-3.85;100.00;101268.77;87417;271;22526;-78
2024/01/10 00:16:15;;;;;;;3.60;2.80;;;;;;;-3.89;100.00;101267.23;87271;278;137459;-78
2024/01/10 00:18:16;;;;;;;3.60;2.60;;;;;;;-3.93;100.00;101265.83;87446;274;24062;-77
2024/01/10 00:20:18;;;;;;;4.50;3.70;;;;;;;-3.99;100.00;101265.07;87215;263;136571;-76
2024/01/10 00:22:20;;;;;;;4.40;1.80;;;;;;;-4.09;100.00;101264.00;87164;263;22641;-77
2024/01/10 00:24:22;;;;;;;5.20;4.30;;;;;;;-4.18;100.00;101253.46;87189;271;136738;-77
2024/01/10 00:26:24;;;;;;;4.80;2.50;;;;;;;-4.21;100.00;101251.52;87213;275;25220;-77
2024/01/10 00:28:26;;;;;;;6.00;2.40;;;;;;;-4.15;100.00;101263.19;86976;268;136883;-75
2024/01/10 00:30:28;;;;;;;3.60;2.80;;;;;;;-4.07;100.00;101254.67;87330;276;22576;-78
2024/01/10 00:32:29;;;;;;;3.20;2.80;;;;;;;-4.00;100.00;101255.22;87066;271;138057;-75
2024/01/10 00:34:31;;;;;;;3.90;2.60;;;;;;;-4.00;100.00;101248.80;87315;267;24059;-78
2024/01/10 00:36:33;;;;;;;2.70;2.40;;;;;;;-4.03;100.00;101248.08;87107;279;136694;-77
2024/01/10 00:38:36;;;;;;;3.80;3.20;;;;;;;-4.03;100.00;101249.46;87288;271;24039;-77
2024/01/10 00:40:38;;;;;;;4.00;3.10;;;;;;;-4.07;100.00;101259.37;87014;272;137280;-71
2024/01/10 00:42:40;;;;;;;3.90;3.00;;;;;;;-4.09;100.00;101262.06;87337;278;22565;-76
2024/01/10 00:44:42;;;;;;;3.10;2.80;;;;;;;-4.09;100.00;101259.11;87175;271;136345;-77
2024/01/10 00:46:43;;;;;;;5.10;3.00;;;;;;;-4.10;100.00;101256.92;87189;271;22543;-70
2024/01/10 00:48:46;;;;;;;3.10;2.40;;;;;;;-4.13;100.00;101256.02;87061;271;138831;-76
2024/01/10 00:50:48;;;;;;;3.30;2.80;;;;;;;-4.17;100.00;101258.79;87848;271;22698;-78
2024/01/10 00:52:49;;;;;;;3.80;3.30;;;;;;;-4.14;100.00;101251.89;89072;267;138305;-73
2024/01/10 00:54:51;;;;;;;5.40;3.90;;;;;;;-4.07;100.00;101253.64;89027;267;23807;-74
2024/01/10 00:56:53;;;;;;;3.40;3.10;;;;;;;-4.01;100.00;101249.20;87386;267;136740;-75
2024/01/10 00:58:57;;;;;;;5.10;4.10;;;;;;;-3.98;100.00;101253.92;87345;275;22579;-76
2024/01/10 01:00:59;;;;;;;6.30;4.10;;;;;;;-4.00;100.00;101257.30;87433;271;136225;-76
2024/01/10 01:03:01;;;;;;;6.10;3.70;;;;;;;-4.03;100.00;101252.60;88246;274;22638;-74
2024/01/10 01:05:04;;;;;;;7.50;5.20;;;;;;;-4.10;100.00;101256.58;87976;266;136203;-71
2024/01/10 01:07:06;;;;;;;5.90;4.30;;;;;;;-4.15;100.00;101260.77;87408;271;22558;-75
2024/01/10 01:09:08;;;;;;;7.30;3.90;;;;;;;-4.20;100.00;101253.52;87224;278;137858;-74
2024/01/10 01:11:10;;;;;;;9.40;4.50;;;;;;;-4.21;100.00;101248.91;87277;271;22558;-77
2024/01/10 01:13:12;;;;;;;3.90;3.30;;;;;;;-4.22;100.00;101241.67;87025;279;137710;-72
2024/01/10 01:15:13;;;;;;;4.80;3.90;;;;;;;-4.23;100.00;101240.32;87091;271;22712;-76
2024/01/10 01:17:15;;;;;;;5.30;3.40;;;;;;;-4.22;100.00;101234.20;87155;279;137409;-77
2024/01/10 01:19:17;;;;;;;5.10;3.50;;;;;;;-4.16;100.00;101225.25;87154;271;22573;-76
2024/01/10 01:21:19;;;;;;;6.20;3.90;;;;;;;-4.14;100.00;101219.95;87168;272;137090;-76
2024/01/10 01:23:21;;;;;;;6.30;4.90;;;;;;;-4.15;100.00;101219.28;87354;275;23316;-80
2024/01/10 01:25:40;;;;;;;4.70;3.10;;;;;;;-4.18;100.00;101212.15;88216;276;137036;-76
2024/01/10 01:27:41;;;;;;;5.90;4.20;;;;;;;-4.23;100.00;101213.75;87258;279;22719;-72
2024/01/10 01:29:43;;;;;;;6.60;3.30;;;;;;;-4.26;100.00;101206.79;87199;278;136485;-77
2024/01/10 01:31:45;;;;;;;5.50;3.60;;;;;;;-4.28;100.00;101213.33;87340;279;22546;-78
2024/01/10 01:33:47;;;;;;;5.20;4.50;;;;;;;-4.32;100.00;101207.94;87135;279;137975;-78
2024/01/10 01:35:49;;;;;;;4.50;3.80;;;;;;;-4.39;100.00;101210.34;87256;268;23323;-77
2024/01/10 01:37:51;;;;;;;5.90;4.10;;;;;;;-4.46;100.00;101211.52;87052;271;136736;-77
2024/01/10 01:39:53;;;;;;;5.90;4.20;;;;;;;-4.43;100.00;101213.48;87254;271;22668;-77
2024/01/10 01:41:55;;;;;;;5.10;3.10;;;;;;;-4.36;100.00;101207.59;87111;275;137865;-79
2024/01/10 01:43:57;;;;;;;4.80;3.90;;;;;;;-4.30;100.00;101209.03;87169;268;22571;-74
2024/01/10 01:45:59;;;;;;;6.10;4.40;;;;;;;-4.31;100.00;101204.06;87045;275;137630;-77
2024/01/10 01:48:01;;;;;;;5.90;3.50;;;;;;;-4.37;100.00;101206.08;87296;275;25150;-80
2024/01/10 01:50:05;;;;;;;4.50;3.20;;;;;;;-4.43;100.00;101207.56;87310;271;23660;-77
2024/01/10 01:52:07;;;;;;;4.20;3.80;;;;;;;-4.46;100.00;101204.42;87253;271;137705;-78
2024/01/10 01:54:11;;;;;;;8.10;5.40;;;;;;;-4.45;100.00;101205.95;87331;271;23946;-76
2024/01/10 01:56:14;;;;;;;6.30;3.90;;;;;;;-4.45;100.00;101204.20;87255;266;136912;-78
2024/01/10 01:58:17;;;;;;;6.40;4.30;;;;;;;-4.46;100.00;101196.61;87419;269;24039;-77
2024/01/10 02:00:18;;;;;;;5.50;4.50;;;;;;;-4.46;100.00;101192.81;87327;269;136720;-79
2024/01/10 02:02:22;;;;;;;5.90;4.90;;;;;;;-4.46;100.00;101184.11;87275;278;22561;-75
2024/01/10 02:04:25;;;;;;;4.60;3.20;;;;;;;-4.37;100.00;101176.25;87221;266;137319;-75
2024/01/10 02:06:27;;;;;;;5.80;3.40;;;;;;;-4.28;100.00;101165.43;87341;266;24147;-74
2024/01/10 02:08:31;;;;;;;6.30;4.70;;;;;;;-4.29;100.00;101166.15;87119;275;136393;-75
2024/01/10 02:10:33;;;;;;;7.20;4.30;;;;;;;-4.33;100.00;101164.75;87206;265;22654;-77
2024/01/10 02:12:35;;;;;;;8.70;4.80;;;;;;;-4.34;100.00;101165.35;87052;263;136480;-76
2024/01/10 02:14:37;;;;;;;4.00;3.60;;;;;;;-4.32;100.00;101155.02;87181;279;22818;-75
2024/01/10 02:16:38;;;;;;;5.40;3.90;;;;;;;-4.33;100.00;101150.19;87099;272;136947;-76
2024/01/10 02:18:40;;;;;;;7.40;3.40;;;;;;;-4.34;100.00;101150.08;87368;271;22632;-77
2024/01/10 02:20:45;;;;;;;4.00;3.50;;;;;;;-4.37;100.00;101146.56;87638;267;136386;-77
2024/01/10 02:22:48;;;;;;;3.70;3.20;;;;;;;-4.38;100.00;101147.31;87766;266;25048;-76
2024/01/10 02:24:53;;;;;;;8.80;4.00;;;;;;;-4.32;100.00;101142.17;87808;274;138237;-78
2024/01/10 02:26:56;;;;;;;6.00;4.10;;;;;;;-4.22;100.00;101139.24;87950;278;24975;-77
2024/01/10 02:28:57;;;;;;;5.20;4.50;;;;;;;-4.12;100.00;101136.33;87387;273;343019;-77
2024/01/10 02:31:00;;;;;;;6.20;3.70;;;;;;;-4.08;100.00;101138.45;87422;272;22698;-76
2024/01/10 02:33:02;;;;;;;5.20;4.20;;;;;;;-4.11;100.00;101135.61;87445;271;136620;-76
2024/01/10 02:35:05;;;;;;;6.20;3.10;;;;;;;-4.14;100.00;101141.65;87599;271;24943;-77
2024/01/10 02:37:07;;;;;;;5.70;4.70;;;;;;;-4.14;100.00;101135.58;87338;275;136303;-71
2024/01/10 02:39:08;;;;;;;5.50;3.90;;;;;;;-4.17;100.00;101132.58;87222;279;22642;-76
2024/01/10 02:41:10;;;;;;;4.50;4.00;;;;;;;-4.19;100.00;101122.77;87216;275;136629;-76
2024/01/10 02:43:12;;;;;;;5.00;3.70;;;;;;;-4.20;100.00;101119.02;87234;272;23886;-77
2024/01/10 02:45:14;;;;;;;6.90;5.00;;;;;;;-4.23;100.00;101114.47;87217;271;136442;-74
2024/01/10 02:47:16;;;;;;;5.50;4.50;;;;;;;-4.21;100.00;101117.02;87338;271;22764;-80
2024/01/10 02:49:18;;;;;;;5.90;4.50;;;;;;;-4.12;100.00;101116.21;87177;275;138832;-80
2024/01/10 02:51:21;;;;;;;6.50;4.70;;;;;;;-4.04;100.00;101112.17;87475;271;24078;-81
2024/01/10 02:53:23;;;;;;;7.00;5.30;;;;;;;-3.97;100.00;101112.02;87278;267;137921;-77
2024/01/10 02:55:25;;;;;;;5.80;4.50;;;;;;;-3.94;100.00;101112.94;87282;267;22573;-76
2024/01/10 02:57:26;;;;;;;5.40;4.60;;;;;;;-3.97;100.00;101117.02;87251;278;136256;-78
2024/01/10 02:59:28;;;;;;;7.50;4.70;;;;;;;-3.98;100.00;101118.84;87186;263;22580;-78
2024/01/10 03:01:30;;;;;;;7.50;5.50;;;;;;;-3.98;100.00;101114.14;87121;268;136800;-78
2024/01/10 03:03:32;;;;;;;7.60;4.70;;;;;;;-4.01;100.00;101116.20;87353;274;22558;-76
2024/01/10 03:05:34;;;;;;;9.00;5.50;;;;;;;-4.04;100.00;101109.94;87227;271;136422;-78
2024/01/10 03:07:36;;;;;;;8.20;5.40;;;;;;;-4.10;100.00;101105.55;87300;278;22764;-77
2024/01/10 03:09:38;;;;;;;6.90;5.10;;;;;;;-4.15;100.00;101106.64;87271;270;136661;-78
2024/01/10 03:11:40;;;;;;;6.70;4.50;;;;;;;-4.17;100.00;101102.38;87193;271;22553;-79
2024/01/10 03:13:45;;;;;;;6.60;4.70;;;;;;;-4.14;100.00;101106.96;87237;272;138346;-79
2024/01/10 03:15:47;;;;;;;7.30;4.70;;;;;;;-4.05;100.00;101112.27;87514;275;22568;-79
2024/01/10 03:17:49;;;;;;;7.90;4.90;;;;;;;-3.97;100.00;101110.28;87797;275;137297;-77
2024/01/10 03:19:52;;;;;;;8.30;4.90;;;;;;;-3.89;100.00;101115.65;88715;267;23022;-76
2024/01/10 03:21:54;;;;;;;6.40;4.80;;;;;;;-3.88;100.00;101108.77;87807;274;135765;-75
2024/01/10 03:23:58;;;;;;;4.90;4.10;;;;;;;-3.90;100.00;101107.14;87474;267;22520;-77
2024/01/10 03:25:59;;;;;;;5.70;3.70;;;;;;;-3.93;100.00;101107.66;87229;268;135778;-75
2024/01/10 03:28:02;;;;;;;5.60;4.00;;;;;;;-3.96;100.00;101107.80;87262;271;22580;-78
2024/01/10 03:30:05;;;;;;;6.60;4.50;;;;;;;-3.98;100.00;101112.24;87359;267;23998;-78
2024/01/10 03:32:07;;;;;;;7.40;5.50;;;;;;;-3.99;100.00;101110.69;87029;265;136625;-81
2024/01/10 03:34:11;;;;;;;5.20;4.00;;;;;;;-3.99;100.00;101098.90;87411;267;24011;-74
2024/01/10 03:36:16;;;;;;;8.10;4.40;;;;;;;-4.01;100.00;101096.38;87284;279;136743;-76
2024/01/10 03:38:20;;;;;;;6.40;4.50;;;;;;;-3.96;100.00;101094.27;87706;275;25198;-79
2024/01/10 03:40:22;;;;;;;4.70;4.00;;;;;;;-3.88;100.00;101096.83;87286;270;138267;-78
2024/01/10 03:42:23;;;;;;;5.50;3.90;;;;;;;-3.84;100.00;101098.34;87324;270;22566;-76
2024/01/10 03:44:26;;;;;;;7.00;4.10;;;;;;;-3.81;100.00;101091.63;87225;274;137060;-82
2024/01/10 03:46:29;;;;;;;7.30;4.70;;;;;;;-3.84;100.00;101094.14;87406;275;22779;-76
2024/01/10 03:48:31;;;;;;;5.70;4.20;;;;;;;-3.90;100.00;101095.52;87204;271;136214;-71
2024/01/10 03:50:33;;;;;;;6.40;4.90;;;;;;;-3.94;100.00;101092.59;87277;267;22566;-76
2024/01/10 03:52:35;;;;;;;6.80;4.70;;;;;;;-3.97;100.00;101088.91;87149;271;136403;-77
2024/01/10 03:54:38;;;;;;;6.00;4.10;;;;;;;-3.97;100.00;101096.07;87431;271;22556;-78
2024/01/10 03:56:40;;;;;;;6.90;4.70;;;;;;;-3.99;100.00;101087.44;87312;264;136479;-75
2024/01/10 03:58:42;;;;;;;8.00;4.50;;;;;;;-4.02;100.00;101085.72;87301;272;24264;-77
2024/01/10 04:00:44;;;;;;;4.80;4.20;;;;;;;-4.00;100.00;101086.45;87153;278;138071;-75
2024/01/10 04:02:46;;;;;;;9.50;4.80;;;;;;;-3.93;100.00;101089.58;87402;271;22629;-77
2024/01/10 04:04:50;;;;;;;7.20;5.20;;;;;;;-3.90;100.00;101089.42;87283;274;136877;-79
2024/01/10 04:06:52;;;;;;;7.50;5.50;;;;;;;-3.88;100.00;101092.81;87169;273;22531;-78
2024/01/10 04:08:54;;;;;;;7.70;5.80;;;;;;;-3.87;100.00;101088.45;87263;273;137606;-75
2024/01/10 04:10:55;;;;;;;4.30;3.90;;;;;;;-3.89;100.00;101083.31;87930;271;22915;-78
2024/01/10 04:12:58;;;;;;;7.40;5.40;;;;;;;-3.91;100.00;101083.94;88093;272;136230;-77
2024/01/10 04:15:00;;;;;;;5.80;4.00;;;;;;;-3.93;100.00;101080.93;88434;267;22553;-74
2024/01/10 04:17:04;;;;;;;7.20;5.60;;;;;;;-3.94;100.00;101076.95;87506;272;136650;-75
2024/01/10 04:19:06;;;;;;;5.70;4.50;;;;;;;-3.96;100.00;101071.86;87294;268;22736;-76
2024/01/10 04:21:08;;;;;;;6.60;4.90;;;;;;;-3.98;100.00;101069.34;87288;271;136895;-78
2024/01/10 04:23:10;;;;;;;7.50;5.60;;;;;;;-3.93;100.00;101069.45;87308;273;22560;-79
2024/01/10 04:25:12;;;;;;;7.00;6.30;;;;;;;-3.86;100.00;101063.86;87290;273;137022;-77
2024/01/10 04:27:18;;;;;;;7.30;4.90;;;;;;;-3.79;100.00;101065.27;87388;271;23155;-73
2024/01/10 04:29:20;;;;;;;5.80;4.50;;;;;;;-3.73;100.00;101058.19;87469;271;136580;-77
2024/01/10 04:31:22;;;;;;;5.00;3.90;;;;;;;-3.73;100.00;101052.45;87333;278;22633;-77
2024/01/10 04:33:24;;;;;;;7.60;5.70;;;;;;;-3.78;100.00;101051.13;87437;271;136344;-77
2024/01/10 04:35:26;;;;;;;6.60;5.10;;;;;;;-3.83;100.00;101058.33;87431;271;22633;-75
2024/01/10 04:37:28;;;;;;;7.80;5.40;;;;;;;-3.87;100.00;101059.08;87096;268;136543;-76
2024/01/10 04:39:30;;;;;;;5.50;4.10;;;;;;;-3.90;100.00;101061.65;87449;271;22563;-75
2024/01/10 04:41:32;;;;;;;7.50;5.40;;;;;;;-3.96;100.00;101055.70;87335;271;136714;-79
2024/01/10 04:43:34;;;;;;;7.00;4.90;;;;;;;-3.98;100.00;101068.52;87400;267;23927;-79
2024/01/10 04:45:35;;;;;;;7.90;5.10;;;;;;;-3.95;100.00;101064.54;87177;267;137374;-69
2024/01/10 04:47:37;;;;;;;7.60;4.50;;;;;;;-3.92;100.00;101071.11;87335;271;24010;-73
2024/01/10 04:49:39;;;;;;;5.80;4.20;;;;;;;-3.88;100.00;101070.23;87321;263;137933;-77
2024/01/10 04:51:41;;;;;;;8.10;4.70;;;;;;;-3.91;100.00;101066.04;87350;271;22567;-76
2024/01/10 04:53:43;;;;;;;5.60;5.00;;;;;;;-3.97;100.00;101073.46;87278;267;137182;-75
2024/01/10 04:55:45;;;;;;;4.90;4.30;;;;;;;-4.04;100.00;101074.50;87336;274;22563;-71
2024/01/10 04:57:52;;;;;;;7.80;5.20;;;;;;;-4.11;100.00;101070.69;87286;270;137497;-77
2024/01/10 04:59:54;;;;;;;5.80;4.40;;;;;;;-4.15;100.00;101077.27;87346;270;22559;-79
2024/01/10 05:01:56;;;;;;;7.40;4.40;;;;;;;-4.09;100.00;101085.35;87222;271;136542;-71
2024/01/10 05:03:58;;;;;;;7.00;4.90;;;;;;;-4.03;100.00;101084.00;87323;271;25111;-78
2024/01/10 05:05:59;;;;;;;5.70;4.30;;;;;;;-4.01;100.00;101095.88;87278;274;136348;-76
2024/01/10 05:08:01;;;;;;;8.30;5.30;;;;;;;-4.00;100.00;101096.54;87206;263;23739;-75
2024/01/10 05:10:04;;;;;;;7.90;6.40;;;;;;;-4.02;100.00;101101.84;87276;278;24279;-75
2024/01/10 05:12:06;;;;;;;5.70;4.40;;;;;;;-4.02;100.00;101106.88;87229;266;136389;-76
2024/01/10 05:14:08;;;;;;;6.80;5.00;;;;;;;-4.03;100.00;101103.82;87213;271;22529;-77
2024/01/10 05:16:10;;;;;;;8.50;4.00;;;;;;;-4.06;100.00;101108.83;87169;274;136296;-75
2024/01/10 05:18:12;;;;;;;6.90;5.20;;;;;;;-4.08;100.00;101102.16;87159;263;22702;-75
2024/01/10 05:20:14;;;;;;;7.00;5.40;;;;;;;-4.01;100.00;101112.38;87056;271;137068;-75
2024/01/10 05:22:16;;;;;;;8.70;6.00;;;;;;;-3.92;100.00;101113.16;87196;279;22571;-73
2024/01/10 05:24:19;;;;;;;6.90;5.40;;;;;;;-3.86;100.00;101110.77;87063;271;137742;-74
2024/01/10 05:26:21;;;;;;;9.90;5.40;;;;;;;-3.82;100.00;101114.91;87266;271;22578;-71
2024/01/10 05:28:23;;;;;;;8.00;5.30;;;;;;;-3.83;100.00;101112.17;87073;279;136720;-74
2024/01/10 05:30:25;;;;;;;6.90;4.50;;;;;;;-3.87;100.00;101113.08;87330;275;22654;-75
2024/01/10 05:32:30;;;;;;;6.50;5.50;;;;;;;-3.89;100.00;101112.14;86960;281;137380;-73
2024/01/10 05:34:32;;;;;;;9.50;6.00;;;;;;;-3.93;100.00;101111.81;87351;267;25342;-75
2024/01/10 05:36:34;;;;;;;10.00;6.80;;;;;;;-3.93;100.00;101122.92;87334;279;137806;-72
2024/01/10 05:38:38;;;;;;;7.20;4.30;;;;;;;-3.84;100.00;101118.13;87262;275;24004;-72
2024/01/10 05:40:40;;;;;;;8.80;6.00;;;;;;;-3.78;100.00;101115.77;87450;271;136874;-72
2024/01/10 05:42:42;;;;;;;5.10;4.50;;;;;;;-3.75;100.00;101115.98;87342;270;22560;-73
2024/01/10 05:44:44;;;;;;;12.60;6.70;;;;;;;-3.77;100.00;101118.66;87139;266;136508;-75
2024/01/10 05:46:47;;;;;;;7.40;5.70;;;;;;;-3.80;100.00;101115.16;87280;269;25297;-66
2024/01/10 05:48:49;;;;;;;6.80;5.60;;;;;;;-3.81;100.00;101106.01;87209;278;137474;-73
2024/01/10 05:50:51;;;;;;;8.50;5.10;;;;;;;-3.86;100.00;101105.23;87298;279;22640;-76
2024/01/10 05:52:53;;;;;;;7.00;6.10;;;;;;;-3.91;100.00;101099.73;87161;271;136564;-74
2024/01/10 05:54:55;;;;;;;7.10;5.00;;;;;;;-3.87;100.00;101101.30;87134;267;22568;-75
2024/01/10 05:56:57;;;;;;;5.60;4.10;;;;;;;-3.84;100.00;101095.41;87191;279;137045;-75
2024/01/10 05:58:59;;;;;;;8.90;6.60;;;;;;;-3.82;100.00;101097.55;87682;271;22669;-76
2024/01/10 06:01:01;;;;;;;5.80;4.60;;;;;;;-3.79;100.00;101099.84;87257;279;136720;-81
2024/01/10 06:03:03;;;;;;;6.40;5.10;;;;;;;-3.80;100.00;101107.86;87385;271;22559;-79
2024/01/10 06:05:09;;;;;;;30.00;6.60;;;;;;;-3.84;100.00;101110.33;87239;275;136500;-79
2024/01/10 06:07:11;;;;;;;10.50;6.70;;;;;;;-3.86;100.00;101110.23;87427;275;22571;-80
2024/01/10 06:09:13;;;;;;;8.30;6.50;;;;;;;-3.87;100.00;101105.45;87112;272;136674;-79
2024/01/10 06:11:15;;;;;;;9.60;6.50;;;;;;;-3.90;100.00;101109.39;87223;264;25097;-76
2024/01/10 06:13:17;;;;;;;10.80;6.30;;;;;;;-3.85;100.00;101106.91;87206;271;137168;-69
2024/01/10 06:15:20;;;;;;;8.40;5.50;;;;;;;-3.77;100.00;101107.19;87240;275;22634;-80
2024/01/10 06:17:21;;;;;;;9.40;6.90;;;;;;;-3.71;100.00;101110.39;87563;271;137073;-79
2024/01/10 06:19:23;;;;;;;9.90;6.80;;;;;;;-3.67;100.00;101107.73;87323;274;22535;-70
2024/01/10 06:21:25;;;;;;;8.20;5.40;;;;;;;-3.63;100.00;101112.60;86995;276;136595;-74
2024/01/10 06:23:27;;;;;;;8.20;5.50;;;;;;;-3.68;100.00;101107.97;87277;271;24536;-74
2024/01/10 06:25:29;;;;;;;12.00;7.10;;;;;;;-3.72;100.00;101109.90;87348;274;136508;-74
2024/01/10 06:27:31;;;;;;;9.30;7.50;;;;;;;-3.72;100.00;101109.20;87219;278;24022;-75
2024/01/10 06:32:14;;;;;;;9.20;7.30;;;;;;;-3.69;100.00;101115.30;84983;296;618113;-79
2024/01/10 06:34:16;;;;;;;10.70;6.70;;;;;;;-3.52;100.00;101119.31;86311;290;24231;-78
2024/01/10 06:36:18;;;;;;;11.40;7.00;;;;;;;-3.40;100.00;101118.89;86062;286;136677;-77
2024/01/10 06:38:22;;;;;;;8.80;6.00;;;;;;;-3.35;100.00;101125.05;86195;290;22572;-74
2024/01/10 06:40:24;;;;;;;11.30;8.10;;;;;;;-3.40;100.00;101127.74;87165;275;135497;-78
2024/01/10 06:42:26;;;;;;;9.00;6.80;;;;;;;-3.48;100.00;101127.61;87165;271;22520;-78
2024/01/10 06:44:28;;;;;;;8.60;7.30;;;;;;;-3.50;100.00;101128.61;86947;264;136390;-79
2024/01/10 06:46:31;;;;;;;10.90;7.20;;;;;;;-3.51;100.00;101127.41;87246;266;175112;-79
2024/01/10 06:48:33;;;;;;;10.50;6.70;;;;;;;-3.52;100.00;101122.80;87345;270;137346;-78
2024/01/10 06:50:35;;;;;;;9.50;6.80;;;;;;;-3.49;100.00;101120.18;87111;266;22538;-80
2024/01/10 06:52:37;;;;;;;9.40;7.90;;;;;;;-3.39;100.00;101125.92;87220;266;138028;-79
2024/01/10 06:54:39;;;;;;;11.00;7.60;;;;;;;-3.32;100.00;101123.46;87181;273;25147;-77
2024/01/10 06:56:41;;;;;;;9.90;6.20;;;;;;;-3.32;100.00;101132.69;87117;266;137331;-78
2024/01/10 06:58:46;;;;;;;11.80;7.30;;;;;;;-3.31;100.00;101125.34;87223;274;22635;-80
2024/01/10 07:00:50;;;;;;;12.00;8.80;;;;;;;-3.30;100.00;101132.44;87056;273;136329;-77
2024/01/10 07:02:54;;;;;;;;;;;;;;;-3.34;100.00;101131.43;87476;277;24116;-75
2024/01/10 07:04:56;;;;;;;15.00;8.30;;;;;;;-3.37;100.00;101131.89;87219;262;122509;-81
2024/01/10 07:06:58;;;;;;;10.90;8.10;;;;;;;-3.37;100.00;101131.40;87454;269;22586;-78
2024/01/10 07:09:00;;;;;;;16.10;10.30;;;;;;;-3.34;100.00;101131.59;87093;274;138068;-81
2024/01/10 07:11:02;;;;;;;13.80;8.30;;;;;;;-3.24;100.00;101123.60;87219;269;22587;-76
2024/01/10 07:13:04;;;;;;;10.80;7.90;;;;;;;-3.14;100.00;101124.31;87243;272;137969;-77
2024/01/10 07:15:07;;;;;;;12.00;8.70;;;;;;;-3.07;100.00;101117.65;87432;269;23981;-80
2024/01/10 07:17:09;;;;;;;15.30;9.70;;;;;;;-3.08;100.00;101116.83;87139;260;136237;-78
2024/01/10 07:19:13;;;;;;;12.30;8.60;;;;;;;-3.17;100.00;101114.19;87240;277;25241;-83
2024/01/10 07:21:15;;;;;;;12.50;8.40;;;;;;;-3.24;100.00;101119.77;87241;273;135983;-78
2024/01/10 07:23:16;;;;;;;12.20;8.10;;;;;;;-3.27;100.00;101111.93;87435;269;22677;-76
2024/01/10 07:25:22;;;;;;;10.80;7.90;;;;;;;-3.28;100.00;101114.12;88429;274;135911;-78
2024/01/10 07:27:24;;;;;;;9.90;7.60;;;;;;;-3.24;100.00;101113.17;88176;275;22574;-76
2024/01/10 07:29:26;;;;;;;12.90;8.40;;;;;;;-3.12;100.00;101118.48;87597;266;136371;-77
2024/01/10 07:31:29;;;;;;;11.40;7.70;;;;;;;-3.03;100.00;101116.75;87532;269;22679;-78
2024/01/10 07:33:31;;;;;;;13.80;8.20;;;;;;;-2.94;100.00;101116.83;87505;270;136502;-77
2024/01/10 07:35:33;;;;;;;9.30;7.90;;;;;;;-2.95;100.00;101116.83;87259;266;24061;-78
2024/01/10 07:37:39;;;;;;;11.90;9.50;;;;;;;-2.96;100.00;101114.31;86936;277;135950;-76
2024/01/10 07:39:41;;;;;;;13.20;9.10;;;;;;;-2.96;100.00;101117.77;87288;269;24110;-75
2024/01/10 07:41:44;;;;;;;15.20;9.50;;;;;;;-2.95;100.00;101117.23;86996;271;136690;-75
2024/01/10 07:43:45;;;;;;;13.40;10.00;;;;;;;-2.98;100.00;101122.20;87885;266;24027;-69
2024/01/10 07:45:47;;;;;;;14.40;9.00;;;;;;;-3.00;100.00;101121.27;87039;278;136615;-81
2024/01/10 07:47:49;;;;;;;13.40;9.60;;;;;;;-2.94;100.00;101123.09;87182;270;22558;-81
2024/01/10 07:49:52;;;;;;;14.30;9.50;;;;;;;-2.85;100.00;101121.38;87739;269;136910;-75
2024/01/10 07:51:54;;;;;;;13.50;10.10;;;;;;;-2.79;100.00;101121.56;88846;266;22567;-72
2024/01/10 07:53:56;;;;;;;13.50;9.40;;;;;;;-2.76;100.00;101124.69;88459;265;136539;-76
2024/01/10 07:55:59;;;;;;;14.40;9.20;;;;;;;-2.77;100.00;101130.12;87239;270;22580;-78
2024/01/10 07:58:01;;;;;;;14.00;9.30;;;;;;;-2.77;100.00;101131.35;87466;277;136300;-75
2024/01/10 08:00:10;;;;;;;13.20;9.40;;;;;;;-2.77;100.00;101136.94;87176;270;136485;-74
2024/01/10 08:02:12;;;;;;;15.70;9.40;;;;;;;-2.81;100.00;101134.21;87489;267;22529;-74
2024/01/10 08:04:16;;;;;;;13.50;9.40;;;;;;;-2.79;100.00;101126.59;87091;277;136739;-77
2024/01/10 08:06:18;;;;;;;17.60;10.70;;;;;;;-2.70;100.00;101123.48;87158;269;23414;-76
2024/01/10 08:08:30;;;;;;;14.20;9.30;;;;;;;-2.62;100.00;101127.41;87001;269;136915;-78
2024/01/10 08:10:32;;;;;;;14.20;9.40;;;;;;;-2.62;100.00;101127.76;87196;273;22667;-78
2024/01/10 08:12:38;;;;;;;14.30;9.80;;;;;;;-2.61;100.00;101131.36;87114;270;137506;-69
2024/01/10 08:14:39;;;;;;;15.90;11.40;;;;;;;-2.62;100.00;101134.39;87358;270;23083;-78
2024/01/10 08:16:41;;;;;;;15.20;10.60;;;;;;;-2.64;100.00;101137.63;87216;266;138039;-80
2024/01/10 08:18:43;;;;;;;18.50;11.00;;;;;;;-2.69;100.00;101138.80;86992;277;22507;-77
2024/01/10 08:20:45;;;;;;;19.80;12.00;;;;;;;-2.74;100.00;101143.92;87072;274;137229;-76
2024/01/10 08:22:48;;;;;;;15.70;10.20;;;;;;;-2.68;100.00;101149.88;87156;270;23121;-74
2024/01/10 08:24:50;;;;;;;16.10;10.80;;;;;;;-2.62;100.00;101149.18;87173;270;138376;-78
2024/01/10 08:26:53;;;;;;;19.40;12.10;;;;;;;-2.58;100.00;101150.52;87190;266;22555;-77
2024/01/10 08:28:56;;;;;;;15.90;11.50;;;;;;;-2.62;100.00;101146.57;87754;270;136629;-80
2024/01/10 08:30:58;;;;;;;17.00;11.70;;;;;;;-2.67;100.00;101142.15;87267;269;22558;-78
2024/01/10 08:33:06;;;;;;;14.30;11.30;;;;;;;-2.72;100.00;101139.99;87193;266;136607;-76
2024/01/10 08:35:08;;;;;;;15.90;11.10;;;;;;;-2.76;100.00;101145.23;87151;269;22568;-79
2024/01/10 08:37:11;;;;;;;19.10;11.90;;;;;;;-2.79;100.00;101143.13;87339;269;136245;-75
2024/01/10 08:39:13;;;;;;;19.00;11.30;;;;;;;-2.74;100.00;101146.19;87224;266;24010;-77
2024/01/10 08:41:14;;;;;;;17.70;11.80;;;;;;;-2.66;100.00;101150.11;87181;277;138428;-80
2024/01/10 08:43:17;;;;;;;15.90;10.60;;;;;;;-2.60;100.00;101156.41;87378;269;22636;-75
2024/01/10 08:45:19;;;;;;;14.50;10.30;;;;;;;-2.59;100.00;101156.48;87720;269;136404;-78
2024/01/10 08:47:21;;;;;;;19.90;12.00;;;;;;;-2.66;100.00;101151.63;87795;266;22533;-78
2024/01/10 08:49:23;;;;;;;16.70;11.30;;;;;;;-2.71;100.00;101148.80;87620;266;136553;-76
2024/01/10 08:51:27;;;;;;;16.30;11.70;;;;;;;-2.76;100.00;101146.97;87451;266;22559;-78
2024/01/10 08:53:28;;;;;;;18.90;11.20;;;;;;;-2.78;100.00;101151.95;88183;270;136571;-77
2024/01/10 08:55:32;;;;;;;16.80;10.40;;;;;;;-2.68;100.00;101153.89;87385;273;22588;-80
2024/01/10 08:57:33;;;;;;;22.40;12.90;;;;;;;-2.62;100.00;101139.61;87264;274;137041;-79
2024/01/10 08:59:36;;;;;;;20.50;13.30;;;;;;;-2.62;100.00;101145.33;87200;269;23776;-75
2024/01/10 09:01:38;;;;;;;15.80;10.60;;;;;;;-2.64;100.00;101146.66;87237;273;137205;-78
2024/01/10 09:03:41;;;;;;;19.30;13.30;;;;;;;-2.66;100.00;101139.99;87363;273;22769;-67
2024/01/10 09:05:44;;;;;;;17.10;11.20;;;;;;;-2.68;100.00;101136.66;87067;273;136239;-77
2024/01/10 09:08:03;;;;;;;19.50;11.80;;;;;;;-2.72;100.00;101135.61;87537;269;22560;-80
2024/01/10 09:10:07;;;;;;;20.80;14.50;;;;;;;-2.78;100.00;101129.35;87160;269;22899;-81
2024/01/10 09:12:09;;;;;;;21.10;13.00;;;;;;;-2.72;100.00;101131.29;87914;270;139942;-81
2024/01/10 09:14:11;;;;;;;20.50;13.00;;;;;;;-2.63;100.00;101129.56;87134;269;22580;-76
2024/01/10 09:16:13;;;;;;;20.40;13.40;;;;;;;-2.56;100.00;101127.42;86959;277;137562;-78
2024/01/10 09:18:15;;;;;;;21.00;14.80;;;;;;;-2.56;100.00;101122.56;87098;269;27263;-80
2024/01/10 09:20:17;;;;;;;17.60;13.40;;;;;;;-2.60;100.00;101121.05;87003;269;136551;-80
2024/01/10 09:22:19;;;;;;;25.20;14.70;;;;;;;-2.65;100.00;101120.11;87094;277;22570;-81
2024/01/10 09:24:21;;;;;;;26.00;15.20;;;;;;;-2.68;100.00;101117.88;87063;270;137895;-77
2024/01/10 09:26:30;;;;;;;23.60;13.90;;;;;;;-2.70;100.00;101111.89;87340;265;25161;-76